Time;durP1;ratioP1;P1;durP2;ratioP2;P2;SDS_P1;SDS_P2;PMS_P1;PMS_P2;Temp;Humidity;BMP_temperature;BMP_pressure;BME280_temperature;BME280_humidity;BME280_pressure;Samples;Min_cycle;Max_cycle;Signal;HPM_P1;HPM_P2
2022/03/20 00:00:47;;;;;;;7.47;2.70;;;;;;;;;;5068229;28;20057;-83
2022/03/20 00:03:14;;;;;;;7.85;2.83;;;;;;;;;;5050759;28;20060;-83
2022/03/20 00:05:42;;;;;;;7.82;2.53;;;;;;;;;;5068314;28;20056;-83
2022/03/20 00:08:09;;;;;;;7.80;2.67;;;;;;;;;;5084361;28;20075;-83
2022/03/20 00:10:36;;;;;;;6.82;3.17;;;;;;;;;;5071655;28;20549;-83
2022/03/20 00:13:07;;;;;;;8.65;2.60;;;;;;;;;;5047500;28;20057;-83
2022/03/20 00:15:34;;;;;;;7.70;2.90;;;;;;;;;;5052467;28;20123;-83
2022/03/20 00:18:00;;;;;;;7.75;3.15;;;;;;;;;;5054250;28;20060;-83
2022/03/20 00:20:27;;;;;;;8.63;3.10;;;;;;;;;;5053134;28;20072;-84
2022/03/20 00:22:56;;;;;;;8.45;3.40;;;;;;;;;;5054629;28;20123;-83
2022/03/20 00:25:22;;;;;;;8.15;2.97;;;;;;;;;;5065594;28;20535;-83
2022/03/20 00:27:49;;;;;;;7.30;3.50;;;;;;;;;;5071129;28;20107;-83
2022/03/20 00:30:17;;;;;;;7.82;3.40;;;;;;;;;;5056309;28;20049;-83
2022/03/20 00:32:44;;;;;;;8.38;3.40;;;;;;;;;;5069110;28;20065;-83
2022/03/20 00:35:10;;;;;;;9.68;3.70;;;;;;;;;;5058476;28;20452;-83
2022/03/20 00:37:37;;;;;;;10.93;3.90;;;;;;;;;;5054840;28;20142;-82
2022/03/20 00:40:04;;;;;;;9.60;4.18;;;;;;;;;;5052613;28;20048;-83
2022/03/20 00:42:30;;;;;;;8.98;4.60;;;;;;;;;;5055303;28;20045;-82
2022/03/20 00:44:56;;;;;;;9.55;4.38;;;;;;;;;;5054339;28;20081;-82
2022/03/20 00:47:25;;;;;;;11.68;4.80;;;;;;;;;;5054767;28;20507;-83
2022/03/20 00:49:52;;;;;;;9.13;4.93;;;;;;;;;;5053446;28;20573;-83
2022/03/20 00:52:18;;;;;;;10.13;4.38;;;;;;;;;;5072090;28;20054;-82
2022/03/20 00:54:45;;;;;;;8.38;4.10;;;;;;;;;;5071107;28;20615;-82
2022/03/20 00:57:11;;;;;;;10.85;4.40;;;;;;;;;;5054167;28;20633;-83
2022/03/20 00:59:37;;;;;;;10.00;4.57;;;;;;;;;;5052439;28;20049;-82
2022/03/20 01:02:04;;;;;;;10.25;4.43;;;;;;;;;;5057385;28;20061;-83
2022/03/20 01:04:31;;;;;;;8.40;4.90;;;;;;;;;;5071793;28;20053;-83
2022/03/20 01:07:00;;;;;;;12.18;4.80;;;;;;;;;;5053649;28;20506;-83
2022/03/20 01:09:26;;;;;;;9.38;5.18;;;;;;;;;;5053467;28;20524;-82
2022/03/20 01:11:53;;;;;;;11.10;5.47;;;;;;;;;;5053999;28;20057;-82
2022/03/20 01:14:19;;;;;;;10.43;5.82;;;;;;;;;;5069304;28;20099;-82
2022/03/20 01:16:46;;;;;;;10.60;5.55;;;;;;;;;;5053943;28;20496;-83
2022/03/20 01:19:12;;;;;;;11.23;5.70;;;;;;;;;;5053273;28;20514;-82
2022/03/20 01:21:38;;;;;;;14.23;5.40;;;;;;;;;;5068767;28;20063;-83
2022/03/20 01:24:05;;;;;;;11.23;5.50;;;;;;;;;;5048880;28;20063;-82
2022/03/20 01:26:31;;;;;;;13.50;6.40;;;;;;;;;;5075483;28;20067;-83
2022/03/20 01:28:58;;;;;;;12.48;5.50;;;;;;;;;;5068900;28;20083;-83
2022/03/20 01:31:24;;;;;;;14.80;6.15;;;;;;;;;;5074315;28;20940;-83
2022/03/20 01:33:51;;;;;;;13.65;5.80;;;;;;;;;;5064985;28;20060;-83
2022/03/20 01:36:17;;;;;;;10.45;5.93;;;;;;;;;;5074678;28;20045;-82
2022/03/20 01:38:43;;;;;;;11.90;5.75;;;;;;;;;;5058135;28;20107;-83
2022/03/20 01:41:10;;;;;;;10.45;5.63;;;;;;;;;;5057010;28;20590;-83
2022/03/20 01:43:38;;;;;;;10.73;5.72;;;;;;;;;;5075981;28;20091;-83
2022/03/20 01:46:04;;;;;;;10.52;5.93;;;;;;;;;;5075302;28;20131;-83
2022/03/20 01:48:31;;;;;;;11.18;6.03;;;;;;;;;;5060198;28;20150;-83
2022/03/20 01:50:57;;;;;;;10.80;6.03;;;;;;;;;;5071848;28;20057;-83
2022/03/20 01:53:24;;;;;;;12.32;5.88;;;;;;;;;;5075494;28;20053;-83
2022/03/20 01:55:50;;;;;;;12.48;5.70;;;;;;;;;;5073493;28;20103;-83
2022/03/20 01:58:17;;;;;;;12.10;5.90;;;;;;;;;;5057194;28;20048;-83
2022/03/20 02:00:44;;;;;;;14.57;5.72;;;;;;;;;;5057276;28;20073;-83
2022/03/20 02:03:10;;;;;;;10.55;5.90;;;;;;;;;;5073607;28;20053;-83
2022/03/20 02:05:37;;;;;;;11.40;5.47;;;;;;;;;;5066144;28;20207;-83
2022/03/20 02:08:04;;;;;;;10.65;5.50;;;;;;;;;;5084986;28;20470;-83
2022/03/20 02:10:35;;;;;;;10.40;5.05;;;;;;;;;;5057429;28;20112;-83
2022/03/20 02:13:02;;;;;;;9.73;5.10;;;;;;;;;;5074703;28;20097;-82
2022/03/20 02:15:29;;;;;;;11.35;5.63;;;;;;;;;;5061133;28;20111;-83
2022/03/20 02:17:57;;;;;;;12.45;5.32;;;;;;;;;;5059843;28;20045;-82
2022/03/20 02:20:23;;;;;;;11.70;5.13;;;;;;;;;;5062642;28;20107;-82
2022/03/20 02:22:49;;;;;;;11.90;5.60;;;;;;;;;;5059840;28;20131;-82
2022/03/20 02:25:17;;;;;;;11.95;5.07;;;;;;;;;;5070952;28;20573;-82
2022/03/20 02:27:44;;;;;;;15.40;5.15;;;;;;;;;;5070328;28;20057;-82
2022/03/20 02:30:13;;;;;;;11.57;5.18;;;;;;;;;;5055876;28;20053;-82
2022/03/20 02:32:42;;;;;;;10.60;5.45;;;;;;;;;;5074391;28;20053;-82
2022/03/20 02:35:14;;;;;;;9.90;5.15;;;;;;;;;;5059408;28;20053;-82
2022/03/20 02:37:43;;;;;;;11.68;5.63;;;;;;;;;;5070157;28;20057;-82
2022/03/20 02:40:09;;;;;;;12.02;5.35;;;;;;;;;;5054286;28;20049;-82
2022/03/20 02:42:42;;;;;;;13.30;5.20;;;;;;;;;;5071088;28;20053;-82
2022/03/20 02:45:12;;;;;;;11.38;5.28;;;;;;;;;;5070884;28;20056;-82
2022/03/20 02:47:40;;;;;;;9.02;5.15;;;;;;;;;;5069538;28;20107;-82
2022/03/20 02:50:06;;;;;;;10.50;5.32;;;;;;;;;;5053121;28;20130;-82
2022/03/20 02:52:49;;;;;;;10.93;5.38;;;;;;;;;;5070953;28;20578;-82
2022/03/20 02:55:18;;;;;;;10.95;5.00;;;;;;;;;;5055774;28;20205;-82
2022/03/20 02:57:47;;;;;;;13.35;5.43;;;;;;;;;;5065388;28;20067;-82
2022/03/20 03:00:21;;;;;;;12.20;5.65;;;;;;;;;;5062861;28;20060;-82
2022/03/20 03:02:48;;;;;;;11.25;5.47;;;;;;;;;;5052302;28;20581;-82
2022/03/20 03:05:17;;;;;;;12.90;5.57;;;;;;;;;;5069238;28;20053;-82
2022/03/20 03:13:16;;;;;;;12.93;5.50;;;;;;;;;;5056888;28;20107;-82
2022/03/20 03:15:43;;;;;;;10.18;5.85;;;;;;;;;;5054434;28;20072;-82
2022/03/20 03:18:10;;;;;;;13.77;5.53;;;;;;;;;;5052004;28;20053;-82
2022/03/20 03:20:36;;;;;;;12.75;6.13;;;;;;;;;;5052320;28;20053;-82
2022/03/20 03:23:03;;;;;;;11.60;5.82;;;;;;;;;;5069698;28;20053;-82
2022/03/20 03:25:35;;;;;;;13.80;6.07;;;;;;;;;;5054473;28;20053;-82
2022/03/20 03:28:02;;;;;;;17.58;6.30;;;;;;;;;;5068954;28;20053;-82
2022/03/20 03:30:28;;;;;;;12.07;6.00;;;;;;;;;;5069847;28;20101;-82
2022/03/20 03:32:55;;;;;;;12.98;6.55;;;;;;;;;;5051624;28;20619;-82
2022/03/20 03:38:08;;;;;;;12.65;6.20;;;;;;;;;;5070485;28;20053;-82
2022/03/20 03:40:34;;;;;;;16.20;7.05;;;;;;;;;;5069282;28;20853;-82
2022/03/20 03:43:02;;;;;;;13.15;6.68;;;;;;;;;;5052088;28;20574;-82
2022/03/20 03:45:29;;;;;;;15.20;6.03;;;;;;;;;;5066005;28;20053;-82
2022/03/20 03:47:55;;;;;;;19.13;6.57;;;;;;;;;;5062814;28;20587;-82
2022/03/20 03:50:22;;;;;;;13.07;6.90;;;;;;;;;;5076454;28;20060;-82
2022/03/20 03:52:48;;;;;;;16.15;7.30;;;;;;;;;;5073184;28;20053;-82
2022/03/20 03:55:15;;;;;;;14.07;7.05;;;;;;;;;;5071944;28;20056;-82
2022/03/20 03:57:42;;;;;;;14.27;6.63;;;;;;;;;;5073448;28;20044;-82
2022/03/20 04:00:09;;;;;;;13.25;6.78;;;;;;;;;;5060927;28;20074;-82
2022/03/20 04:02:36;;;;;;;16.25;7.28;;;;;;;;;;5072643;28;20106;-82
2022/03/20 04:05:02;;;;;;;16.55;7.55;;;;;;;;;;5054930;28;20553;-82
2022/03/20 04:07:29;;;;;;;17.42;7.38;;;;;;;;;;5067159;28;20053;-82
2022/03/20 04:09:55;;;;;;;13.95;7.57;;;;;;;;;;5056346;28;20094;-82
2022/03/20 04:12:22;;;;;;;13.63;6.88;;;;;;;;;;5072726;28;20508;-82
2022/03/20 04:14:48;;;;;;;16.23;7.63;;;;;;;;;;5056087;28;20613;-82
2022/03/20 04:17:15;;;;;;;15.48;7.32;;;;;;;;;;5055262;28;20060;-82
2022/03/20 04:19:41;;;;;;;18.13;8.23;;;;;;;;;;5054535;28;20053;-82
2022/03/20 04:22:08;;;;;;;15.45;7.57;;;;;;;;;;5063174;28;20044;-82
2022/03/20 04:24:36;;;;;;;15.73;7.43;;;;;;;;;;5062442;28;20195;-82
2022/03/20 04:27:03;;;;;;;16.77;8.50;;;;;;;;;;5072342;28;20516;-82
2022/03/20 04:29:30;;;;;;;16.80;8.30;;;;;;;;;;5072157;28;20053;-82
2022/03/20 04:31:56;;;;;;;15.75;7.45;;;;;;;;;;5071881;28;20121;-82
2022/03/20 04:34:23;;;;;;;17.17;7.53;;;;;;;;;;5062711;28;20115;-82
2022/03/20 04:36:50;;;;;;;18.20;7.70;;;;;;;;;;5072334;28;20106;-82
2022/03/20 04:39:19;;;;;;;14.45;7.57;;;;;;;;;;5070843;28;20107;-82
2022/03/20 04:41:48;;;;;;;19.35;8.30;;;;;;;;;;5055969;28;20115;-82
2022/03/20 04:44:14;;;;;;;16.83;8.23;;;;;;;;;;5073397;28;20049;-82
2022/03/20 04:46:41;;;;;;;14.75;8.15;;;;;;;;;;5054464;28;20558;-82
2022/03/20 05:00:06;;;;;;;17.88;9.00;;;;;;;;;;5070869;28;20470;-82
2022/03/20 05:02:33;;;;;;;20.20;8.68;;;;;;;;;;5072269;28;20053;-82
2022/03/20 05:04:59;;;;;;;19.77;8.52;;;;;;;;;;5070429;28;20075;-81
2022/03/20 05:07:26;;;;;;;19.20;8.90;;;;;;;;;;5056827;28;20061;-82
2022/03/20 05:15:22;;;;;;;15.90;8.50;;;;;;;;;;5072379;28;20053;-82
2022/03/20 05:17:49;;;;;;;23.77;9.80;;;;;;;;;;5054326;28;20103;-82
2022/03/20 05:20:16;;;;;;;18.35;8.90;;;;;;;;;;5052984;28;20093;-82
2022/03/20 05:22:42;;;;;;;19.52;9.32;;;;;;;;;;5053280;28;20065;-81
2022/03/20 05:25:09;;;;;;;18.73;9.52;;;;;;;;;;5070549;28;20138;-82
2022/03/20 05:27:36;;;;;;;22.77;9.88;;;;;;;;;;5054689;28;20045;-81
2022/03/20 05:30:05;;;;;;;19.75;9.43;;;;;;;;;;5054000;28;20520;-81
2022/03/20 05:32:32;;;;;;;22.80;10.18;;;;;;;;;;5061905;28;20086;-82
2022/03/20 05:34:59;;;;;;;17.40;8.98;;;;;;;;;;5058017;28;20053;-81
2022/03/20 05:37:25;;;;;;;19.65;9.25;;;;;;;;;;5070552;28;20056;-82
2022/03/20 05:39:52;;;;;;;24.70;10.20;;;;;;;;;;5077872;28;20057;-81
2022/03/20 05:42:18;;;;;;;21.23;9.27;;;;;;;;;;5052597;28;20103;-82
2022/03/20 05:44:46;;;;;;;17.90;9.00;;;;;;;;;;5049227;28;20033;-81
2022/03/20 05:47:12;;;;;;;21.88;10.40;;;;;;;;;;5054058;28;20081;-81
2022/03/20 05:49:39;;;;;;;17.25;9.18;;;;;;;;;;5052953;28;20124;-82
2022/03/20 05:52:06;;;;;;;17.90;10.30;;;;;;;;;;5052836;28;20061;-83
2022/03/20 05:54:32;;;;;;;22.63;9.57;;;;;;;;;;5071875;28;20942;-83
2022/03/20 05:59:43;;;;;;;24.02;10.43;;;;;;;;;;5072047;28;20064;-83
2022/03/20 06:02:10;;;;;;;18.17;10.02;;;;;;;;;;5053490;28;20045;-83
2022/03/20 06:04:38;;;;;;;23.52;10.15;;;;;;;;;;5060470;28;20140;-82
2022/03/20 06:07:05;;;;;;;19.38;10.25;;;;;;;;;;5068011;28;20580;-83
2022/03/20 06:09:32;;;;;;;18.60;9.85;;;;;;;;;;5092377;28;20099;-83
2022/03/20 06:11:58;;;;;;;20.02;9.73;;;;;;;;;;5065177;28;20111;-83
2022/03/20 06:14:27;;;;;;;22.55;9.73;;;;;;;;;;5071449;28;20049;-83
2022/03/20 06:16:54;;;;;;;23.83;10.23;;;;;;;;;;5053229;28;20053;-83
2022/03/20 06:19:21;;;;;;;23.63;10.25;;;;;;;;;;5071732;28;20593;-83
2022/03/20 06:21:48;;;;;;;20.98;10.38;;;;;;;;;;5071893;28;20048;-83
2022/03/20 06:24:14;;;;;;;23.08;10.45;;;;;;;;;;5071180;28;20067;-83
2022/03/20 06:26:40;;;;;;;19.77;10.23;;;;;;;;;;5063986;28;20115;-83
2022/03/20 06:29:07;;;;;;;23.73;10.10;;;;;;;;;;5071505;28;20053;-83
2022/03/20 06:31:33;;;;;;;21.73;10.80;;;;;;;;;;5053388;28;20082;-83
2022/03/20 06:34:00;;;;;;;23.70;10.98;;;;;;;;;;5054420;28;20059;-83
2022/03/20 06:36:27;;;;;;;19.65;10.88;;;;;;;;;;5068329;28;20052;-83
2022/03/20 06:38:54;;;;;;;19.65;10.52;;;;;;;;;;5050748;28;20139;-83
2022/03/20 06:41:20;;;;;;;21.35;9.80;;;;;;;;;;5058865;28;20100;-83
2022/03/20 06:43:47;;;;;;;23.23;11.10;;;;;;;;;;5072425;28;20057;-82
2022/03/20 06:46:13;;;;;;;20.75;11.00;;;;;;;;;;5070708;28;20593;-83
2022/03/20 06:48:51;;;;;;;21.42;10.95;;;;;;;;;;5034098;28;20100;-83
2022/03/20 06:51:17;;;;;;;24.40;10.63;;;;;;;;;;5060546;28;20598;-83
2022/03/20 06:53:44;;;;;;;23.08;10.50;;;;;;;;;;5052457;28;20057;-83
2022/03/20 06:56:10;;;;;;;22.02;11.27;;;;;;;;;;5070554;28;20048;-83
2022/03/20 06:58:37;;;;;;;22.95;10.43;;;;;;;;;;5052257;28;20053;-83
2022/03/20 07:01:03;;;;;;;21.95;10.63;;;;;;;;;;5051743;28;20119;-83
2022/03/20 07:03:29;;;;;;;23.63;10.50;;;;;;;;;;5069602;28;20108;-83
2022/03/20 07:05:56;;;;;;;20.33;11.13;;;;;;;;;;5067296;28;20102;-83
2022/03/20 07:08:22;;;;;;;22.35;10.40;;;;;;;;;;5071915;28;20520;-83
2022/03/20 07:10:49;;;;;;;19.58;10.63;;;;;;;;;;5051789;28;20059;-84
2022/03/20 07:16:00;;;;;;;21.52;10.60;;;;;;;;;;5065556;28;20049;-83
2022/03/20 07:18:27;;;;;;;23.10;10.98;;;;;;;;;;5069335;28;20057;-83
2022/03/20 07:20:55;;;;;;;20.52;10.68;;;;;;;;;;5051301;28;20049;-83
2022/03/20 07:23:22;;;;;;;21.48;10.75;;;;;;;;;;5051806;28;20049;-83
2022/03/20 07:31:18;;;;;;;19.73;10.65;;;;;;;;;;5071050;28;20057;-83
2022/03/20 07:33:48;;;;;;;24.75;10.88;;;;;;;;;;5069609;28;20147;-83
2022/03/20 07:36:14;;;;;;;21.13;11.30;;;;;;;;;;5069312;28;20573;-83
2022/03/20 07:38:41;;;;;;;22.33;11.70;;;;;;;;;;5063284;28;20049;-83
2022/03/20 07:41:09;;;;;;;25.15;11.32;;;;;;;;;;5055488;28;20037;-83
2022/03/20 07:43:36;;;;;;;22.65;11.85;;;;;;;;;;5061164;28;20885;-83
2022/03/20 07:46:02;;;;;;;21.88;10.80;;;;;;;;;;5053097;28;20087;-83
2022/03/20 07:48:32;;;;;;;24.67;11.98;;;;;;;;;;5070319;28;20107;-83
2022/03/20 07:51:01;;;;;;;25.80;11.70;;;;;;;;;;5070465;28;20061;-83
2022/03/20 07:53:27;;;;;;;19.48;10.57;;;;;;;;;;5051829;28;20107;-79
2022/03/20 07:55:53;;;;;;;24.25;11.27;;;;;;;;;;5054102;28;20119;-79
2022/03/20 07:58:20;;;;;;;25.63;11.35;;;;;;;;;;5068472;28;20049;-79
2022/03/20 08:00:47;;;;;;;20.40;11.63;;;;;;;;;;5051574;28;20096;-79
2022/03/20 08:03:18;;;;;;;25.30;12.27;;;;;;;;;;5059451;28;20068;-79
2022/03/20 08:05:45;;;;;;;24.23;11.30;;;;;;;;;;5089218;28;20055;-79
2022/03/20 08:08:14;;;;;;;26.60;11.30;;;;;;;;;;5052712;28;20053;-81
2022/03/20 08:10:41;;;;;;;21.75;11.43;;;;;;;;;;5067104;28;20080;-81
2022/03/20 08:13:10;;;;;;;20.35;11.55;;;;;;;;;;5064406;28;20080;-81
2022/03/20 08:15:36;;;;;;;23.58;11.88;;;;;;;;;;5051199;28;20051;-81
2022/03/20 08:18:06;;;;;;;23.55;12.05;;;;;;;;;;5064756;28;20131;-81
2022/03/20 08:20:34;;;;;;;21.17;11.93;;;;;;;;;;5059652;28;20076;-81
2022/03/20 08:23:00;;;;;;;22.13;11.90;;;;;;;;;;5068417;28;20049;-81
2022/03/20 08:25:26;;;;;;;24.10;11.95;;;;;;;;;;5050514;28;20492;-81
2022/03/20 08:27:56;;;;;;;19.92;11.48;;;;;;;;;;5049340;28;20123;-81
2022/03/20 08:30:22;;;;;;;22.95;11.85;;;;;;;;;;5052305;28;20084;-81
2022/03/20 08:32:52;;;;;;;22.15;11.15;;;;;;;;;;5046734;28;20069;-80
2022/03/20 08:35:19;;;;;;;25.40;12.17;;;;;;;;;;5043807;28;20061;-81
2022/03/20 08:37:47;;;;;;;21.92;12.05;;;;;;;;;;5055003;28;20061;-81
2022/03/20 08:40:17;;;;;;;24.35;12.20;;;;;;;;;;5072981;28;20110;-81
2022/03/20 08:42:44;;;;;;;25.15;11.80;;;;;;;;;;5073578;28;20049;-80
2022/03/20 08:45:11;;;;;;;25.38;13.15;;;;;;;;;;5073490;28;20061;-79
2022/03/20 08:47:43;;;;;;;21.52;12.35;;;;;;;;;;5056784;28;20098;-80
2022/03/20 08:50:11;;;;;;;22.30;11.80;;;;;;;;;;5073108;28;20673;-80
2022/03/20 08:52:37;;;;;;;20.17;11.68;;;;;;;;;;5054632;28;20512;-81
2022/03/20 08:55:09;;;;;;;23.38;12.52;;;;;;;;;;5062441;28;20080;-82
2022/03/20 08:57:40;;;;;;;22.15;12.38;;;;;;;;;;5072199;28;20049;-80
2022/03/20 09:00:08;;;;;;;24.55;12.35;;;;;;;;;;5053718;28;20594;-80
2022/03/20 09:02:34;;;;;;;25.90;13.15;;;;;;;;;;5060302;28;20104;-80
2022/03/20 09:05:01;;;;;;;22.10;11.80;;;;;;;;;;5051332;28;20045;-81
2022/03/20 09:07:28;;;;;;;24.45;12.55;;;;;;;;;;5054177;28;20514;-81
2022/03/20 09:09:54;;;;;;;25.55;12.63;;;;;;;;;;5053741;28;20103;-80
2022/03/20 09:12:20;;;;;;;26.98;13.15;;;;;;;;;;5054022;28;20508;-80
2022/03/20 09:14:47;;;;;;;21.77;12.05;;;;;;;;;;5052394;28;20054;-81
2022/03/20 09:19:59;;;;;;;23.20;12.52;;;;;;;;;;5062221;28;20123;-81
2022/03/20 09:22:26;;;;;;;23.00;12.68;;;;;;;;;;5051720;28;20060;-81
2022/03/20 09:24:52;;;;;;;26.00;13.00;;;;;;;;;;5071652;28;20044;-80
2022/03/20 09:27:19;;;;;;;27.23;13.50;;;;;;;;;;5055170;28;20563;-81
2022/03/20 09:29:46;;;;;;;25.40;12.63;;;;;;;;;;5072463;28;20459;-81
2022/03/20 09:32:13;;;;;;;26.23;13.27;;;;;;;;;;5053562;28;20083;-80
2022/03/20 09:34:39;;;;;;;22.23;12.95;;;;;;;;;;5055559;28;20053;-80
2022/03/20 09:37:06;;;;;;;23.63;13.30;;;;;;;;;;5054213;28;20115;-81
2022/03/20 09:39:32;;;;;;;24.80;13.25;;;;;;;;;;5071258;28;20140;-80
2022/03/20 09:41:59;;;;;;;30.70;13.68;;;;;;;;;;5050840;28;20053;-81
2022/03/20 09:44:25;;;;;;;26.73;13.82;;;;;;;;;;5054037;28;20064;-80
2022/03/20 09:46:52;;;;;;;25.98;13.25;;;;;;;;;;5052457;28;20602;-80
2022/03/20 09:49:20;;;;;;;28.15;13.48;;;;;;;;;;5052583;28;20048;-80
2022/03/20 09:51:46;;;;;;;26.17;13.43;;;;;;;;;;5050301;28;20520;-81
2022/03/20 09:54:14;;;;;;;22.20;12.98;;;;;;;;;;5051492;28;20139;-80
2022/03/20 09:56:42;;;;;;;25.98;13.85;;;;;;;;;;5051768;28;20052;-81
2022/03/20 09:59:09;;;;;;;26.67;14.32;;;;;;;;;;5050166;28;20058;-80
2022/03/20 10:01:54;;;;;;;25.17;12.68;;;;;;;;;;5071728;28;20052;-81
2022/03/20 10:04:53;;;;;;;27.50;14.23;;;;;;;;;;5042452;28;20052;-80
2022/03/20 10:08:16;;;;;;;;;;;;;;;;;;;;;
2022/03/20 10:11:32;;;;;;;29.17;14.32;;;;;;;;;;4947891;28;20048;-79
2022/03/20 10:26:51;;;;;;;;;;;;;;;;;;;;;
2022/03/20 10:33:08;;;;;;;;;;;;;;;;;;;;;
2022/03/20 10:36:17;;;;;;;29.35;15.65;;;;;;;;;;4875717;29;20062;-82
2022/03/20 10:53:39;;;;;;;26.35;14.77;;;;;;;;;;5000524;28;20059;-81
2022/03/20 10:56:32;;;;;;;28.67;15.30;;;;;;;;;;4975546;28;20055;-82
2022/03/20 10:59:49;;;;;;;;;;;;;;;;;;;;;
2022/03/20 11:02:52;;;;;;;24.48;14.15;;;;;;;;;;4989648;28;20070;-82
2022/03/20 11:08:39;;;;;;;30.55;15.43;;;;;;;;;;4958053;28;20062;-82
2022/03/20 11:11:05;;;;;;;28.02;15.00;;;;;;;;;;4985868;28;20109;-80
2022/03/20 11:13:36;;;;;;;28.40;15.88;;;;;;;;;;4988157;28;20051;-82
2022/03/20 11:16:22;;;;;;;28.83;15.40;;;;;;;;;;4987858;28;20066;-79
2022/03/20 11:18:51;;;;;;;30.50;16.75;;;;;;;;;;4988693;28;20912;-81
2022/03/20 11:21:23;;;;;;;31.75;15.93;;;;;;;;;;5002513;28;20124;-80
2022/03/20 11:23:53;;;;;;;28.40;16.35;;;;;;;;;;4989107;28;20055;-80
2022/03/20 11:26:21;;;;;;;27.35;16.55;;;;;;;;;;4991978;28;20844;-80
2022/03/20 11:28:50;;;;;;;30.23;16.65;;;;;;;;;;4982403;28;20107;-80
2022/03/20 11:31:16;;;;;;;30.77;16.60;;;;;;;;;;5010211;28;20442;-79
2022/03/20 11:33:44;;;;;;;31.67;16.70;;;;;;;;;;4995556;28;20145;-80
2022/03/20 11:36:15;;;;;;;31.65;16.75;;;;;;;;;;4983330;28;20125;-80
2022/03/20 11:39:05;;;;;;;33.45;18.30;;;;;;;;;;4988813;28;20039;-80
2022/03/20 11:41:33;;;;;;;32.05;16.75;;;;;;;;;;4999799;28;20118;-81
2022/03/20 11:44:14;;;;;;;31.33;17.00;;;;;;;;;;4986275;28;20062;-80
2022/03/20 11:46:46;;;;;;;34.00;18.17;;;;;;;;;;4990280;28;20117;-80
2022/03/20 11:49:13;;;;;;;31.90;17.85;;;;;;;;;;4983790;28;20081;-80
2022/03/20 11:52:05;;;;;;;30.80;16.85;;;;;;;;;;4990303;28;20050;-80
2022/03/20 11:54:40;;;;;;;30.07;16.50;;;;;;;;;;4990327;28;20062;-80
2022/03/20 11:57:26;;;;;;;32.85;17.48;;;;;;;;;;4998507;28;20287;-80
2022/03/20 11:59:54;;;;;;;32.25;18.25;;;;;;;;;;4987304;28;20055;-80
2022/03/20 12:02:27;;;;;;;30.95;17.98;;;;;;;;;;4986849;28;20505;-80
2022/03/20 12:05:01;;;;;;;29.48;17.13;;;;;;;;;;4990707;28;20051;-80
2022/03/20 12:07:41;;;;;;;28.83;17.13;;;;;;;;;;4989419;28;20059;-81
2022/03/20 12:10:22;;;;;;;32.45;17.63;;;;;;;;;;4987908;28;20524;-79
2022/03/20 12:12:54;;;;;;;33.55;18.58;;;;;;;;;;4996424;28;20058;-79
2022/03/20 12:15:23;;;;;;;32.63;18.75;;;;;;;;;;4989526;28;20042;-79
2022/03/20 12:17:57;;;;;;;36.33;17.98;;;;;;;;;;4989637;28;20067;-80
2022/03/20 12:20:42;;;;;;;31.65;17.40;;;;;;;;;;5008888;28;20050;-81
2022/03/20 12:23:27;;;;;;;32.00;17.98;;;;;;;;;;5017523;28;20053;-79
2022/03/20 12:25:54;;;;;;;30.98;17.40;;;;;;;;;;5009814;28;20110;-79
2022/03/20 12:28:30;;;;;;;35.35;19.17;;;;;;;;;;4993102;28;20836;-79
2022/03/20 12:30:57;;;;;;;31.10;17.30;;;;;;;;;;4995812;28;20058;-81
2022/03/20 12:33:27;;;;;;;32.10;17.67;;;;;;;;;;4988332;28;20055;-81
2022/03/20 12:35:54;;;;;;;32.30;17.90;;;;;;;;;;4989278;28;20058;-80
2022/03/20 12:38:35;;;;;;;34.13;18.05;;;;;;;;;;4992046;28;20059;-80
2022/03/20 12:41:12;;;;;;;33.25;19.58;;;;;;;;;;5005439;28;20083;-80
2022/03/20 12:43:38;;;;;;;37.22;20.08;;;;;;;;;;4980429;28;20447;-81
2022/03/20 12:46:06;;;;;;;33.08;18.50;;;;;;;;;;5007514;28;20515;-80
2022/03/20 12:48:34;;;;;;;35.17;18.50;;;;;;;;;;5009103;28;20039;-81
2022/03/20 12:51:09;;;;;;;36.60;19.17;;;;;;;;;;4992395;28;20924;-81
2022/03/20 12:53:37;;;;;;;33.03;19.10;;;;;;;;;;4992276;28;20114;-81
2022/03/20 12:56:09;;;;;;;35.75;18.83;;;;;;;;;;5006927;28;20590;-81
2022/03/20 12:58:35;;;;;;;39.75;21.58;;;;;;;;;;4988068;28;20105;-81
2022/03/20 13:01:09;;;;;;;34.25;20.05;;;;;;;;;;4992853;28;20613;-80
2022/03/20 13:03:36;;;;;;;37.78;20.27;;;;;;;;;;4991654;28;20058;-81
2022/03/20 13:06:03;;;;;;;36.03;20.15;;;;;;;;;;5012037;28;20196;-81
2022/03/20 13:08:34;;;;;;;34.33;18.95;;;;;;;;;;4992240;28;20506;-81
2022/03/20 13:14:12;;;;;;;36.72;21.77;;;;;;;;;;5000915;28;20078;-81
2022/03/20 13:16:56;;;;;;;37.55;19.75;;;;;;;;;;4991885;28;20061;-81
2022/03/20 13:19:25;;;;;;;34.80;19.08;;;;;;;;;;4990471;28;20113;-82
2022/03/20 13:21:52;;;;;;;36.58;20.15;;;;;;;;;;4991489;28;20059;-82
2022/03/20 13:24:32;;;;;;;35.30;19.75;;;;;;;;;;4993314;28;20066;-81
2022/03/20 13:26:59;;;;;;;33.47;19.73;;;;;;;;;;4993481;28;20117;-82
2022/03/20 13:29:26;;;;;;;35.50;19.20;;;;;;;;;;4994914;28;20055;-81
2022/03/20 13:31:59;;;;;;;32.35;19.17;;;;;;;;;;4992695;28;20086;-82
2022/03/20 13:34:26;;;;;;;32.60;19.38;;;;;;;;;;4993806;28;20051;-82
2022/03/20 13:36:52;;;;;;;33.30;18.65;;;;;;;;;;4993085;28;20054;-82
2022/03/20 13:39:21;;;;;;;35.88;19.65;;;;;;;;;;4993535;28;20110;-82
2022/03/20 13:41:47;;;;;;;34.22;19.52;;;;;;;;;;4991778;28;20062;-82
2022/03/20 13:44:15;;;;;;;33.58;18.52;;;;;;;;;;4989253;28;20054;-82
2022/03/20 13:46:43;;;;;;;35.47;19.95;;;;;;;;;;4993297;28;20054;-81
2022/03/20 13:49:10;;;;;;;35.35;19.38;;;;;;;;;;4991499;28;20096;-81
2022/03/20 13:51:42;;;;;;;33.92;19.92;;;;;;;;;;4992144;28;20046;-82
2022/03/20 13:54:13;;;;;;;34.35;19.90;;;;;;;;;;4993439;28;20055;-82
2022/03/20 13:56:40;;;;;;;32.28;19.08;;;;;;;;;;4992200;28;20454;-82
2022/03/20 13:59:07;;;;;;;37.58;20.45;;;;;;;;;;4991583;28;20058;-81
2022/03/20 14:01:44;;;;;;;35.72;20.50;;;;;;;;;;4999478;28;20057;-82
2022/03/20 14:04:12;;;;;;;34.10;18.92;;;;;;;;;;4991656;28;20072;-82
2022/03/20 14:06:40;;;;;;;36.33;19.17;;;;;;;;;;4991635;28;20142;-82
2022/03/20 14:09:07;;;;;;;33.55;18.63;;;;;;;;;;4986667;28;20051;-82
2022/03/20 14:11:36;;;;;;;31.50;18.65;;;;;;;;;;4992410;28;20062;-82
2022/03/20 14:14:04;;;;;;;32.65;18.40;;;;;;;;;;4991538;28;20061;-81
2022/03/20 14:16:32;;;;;;;30.83;18.75;;;;;;;;;;4988598;28;21552;-82
2022/03/20 14:19:03;;;;;;;32.05;18.15;;;;;;;;;;4977459;28;20118;-82
2022/03/20 14:21:31;;;;;;;;;;;;;;;;;;4992818;28;20062;-82
2022/03/20 14:24:08;;;;;;;34.28;16.73;;;;;;;;;;4989871;28;43314;-82
2022/03/20 14:26:36;;;;;;;30.42;17.25;;;;;;;;;;4991497;28;20146;-82
2022/03/20 14:40:44;;;;;;;23.23;13.32;;;;;;;;;;4989514;28;20063;-81
2022/03/20 14:43:11;;;;;;;25.55;14.05;;;;;;;;;;4992904;28;20035;-81
2022/03/20 14:45:39;;;;;;;21.60;13.38;;;;;;;;;;4991717;28;20061;-81
2022/03/20 14:48:12;;;;;;;22.98;13.57;;;;;;;;;;4997470;28;20061;-81
2022/03/20 14:50:38;;;;;;;26.23;13.52;;;;;;;;;;4989673;28;20809;-81
2022/03/20 14:53:08;;;;;;;25.75;14.00;;;;;;;;;;4985845;28;20086;-80
2022/03/20 14:55:34;;;;;;;26.08;14.38;;;;;;;;;;4972022;28;20063;-81
2022/03/20 14:58:01;;;;;;;26.40;15.18;;;;;;;;;;5002957;28;20580;-81
2022/03/20 15:00:28;;;;;;;27.77;16.33;;;;;;;;;;4991449;28;20766;-82
2022/03/20 15:02:55;;;;;;;28.00;16.20;;;;;;;;;;4997650;28;20058;-81
2022/03/20 15:05:22;;;;;;;28.15;16.33;;;;;;;;;;4991086;28;20047;-81
2022/03/20 15:13:28;;;;;;;31.27;17.92;;;;;;;;;;4988063;28;20134;-81
2022/03/20 15:15:55;;;;;;;30.85;17.73;;;;;;;;;;4990075;28;20061;-81
2022/03/20 15:18:22;;;;;;;30.92;18.40;;;;;;;;;;4990913;28;20055;-81
2022/03/20 15:20:48;;;;;;;32.08;19.42;;;;;;;;;;4991303;28;20058;-81
2022/03/20 15:23:15;;;;;;;37.20;20.73;;;;;;;;;;4989255;28;20426;-81
2022/03/20 15:25:42;;;;;;;36.60;21.17;;;;;;;;;;4990608;28;20050;-81
2022/03/20 15:28:09;;;;;;;33.40;19.48;;;;;;;;;;4989123;28;20054;-81
2022/03/20 15:30:38;;;;;;;36.20;21.33;;;;;;;;;;4993232;28;20061;-81
2022/03/20 15:33:05;;;;;;;37.05;21.63;;;;;;;;;;4992920;28;20047;-81
2022/03/20 15:35:57;;;;;;;32.97;20.55;;;;;;;;;;4992947;28;20055;-81
2022/03/20 15:38:40;;;;;;;;;;;;;;;;;;;;;
2022/03/20 15:41:58;;;;;;;36.67;21.42;;;;;;;;;;4984411;28;20191;-82
2022/03/20 15:44:38;;;;;;;34.97;20.42;;;;;;;;;;5000292;28;20055;-82
2022/03/20 15:47:05;;;;;;;38.17;21.95;;;;;;;;;;4988460;28;20069;-82
2022/03/20 15:49:31;;;;;;;36.72;21.10;;;;;;;;;;4990879;28;20137;-83
2022/03/20 15:52:00;;;;;;;31.02;18.55;;;;;;;;;;4989583;28;20055;-82
2022/03/20 15:54:26;;;;;;;33.58;20.27;;;;;;;;;;4989509;28;20507;-79
2022/03/20 15:56:53;;;;;;;40.13;21.42;;;;;;;;;;5006145;28;20063;-82
2022/03/20 15:59:19;;;;;;;35.72;21.27;;;;;;;;;;5005174;28;20076;-82
2022/03/20 16:01:47;;;;;;;32.08;20.75;;;;;;;;;;4992070;28;20114;-81
2022/03/20 16:04:14;;;;;;;33.53;20.25;;;;;;;;;;4989903;28;20054;-82
2022/03/20 16:06:41;;;;;;;33.67;20.25;;;;;;;;;;4988159;28;20061;-82
2022/03/20 16:09:07;;;;;;;33.75;19.70;;;;;;;;;;4987892;28;20121;-81
2022/03/20 16:11:54;;;;;;;30.20;18.38;;;;;;;;;;4998957;28;20149;-81
2022/03/20 16:14:20;;;;;;;34.90;19.73;;;;;;;;;;4993131;28;20054;-81